Terminal Aerodrome Forecast
Issued by NWS Melbourne, FL

Home | Current Version | Previous Version | Text Only | Print | Product List | Glossary On
Versions: 1 2 3 4 5 6 7 8 9 10 11 12 13 14 15 16 17 18
000
FTUS42 KMLB 302331
TAFVRB
TAF
KVRB 302331Z 3100/3124 16011KT P6SM VCTS SCT020CB BKN050
     FM310400 16006KT P6SM VCSH SCT020 BKN050 OVC250
     FM311300 19009KT P6SM VCSH SCT030 BKN050 OVC250
      TEMPO 3114/3118 2SM TSRA BKN020CB
     FM311800 19004KT P6SM VCTS SCT020CB BKN040 OVC150=

USA.gov is the U.S. government's official web portal to all federal, state and local government web resources and services.